createdAt,value
2023-04-07T00:01:46.479Z,49.13
2023-04-07T00:04:13.941Z,49.93
2023-04-07T00:06:41.192Z,49.87
2023-04-07T00:09:08.240Z,50.38
2023-04-07T00:11:35.419Z,50.54
2023-04-07T00:14:02.590Z,50.42
2023-04-07T00:16:29.740Z,50.98
2023-04-07T00:18:56.973Z,52.06
2023-04-07T00:21:24.094Z,51.71
2023-04-07T00:23:52.806Z,51.08
2023-04-07T00:26:20.060Z,51.73
2023-04-07T00:28:47.495Z,51.43
2023-04-07T00:31:14.748Z,51.91
2023-04-07T00:33:41.889Z,52.36
2023-04-07T00:36:09.180Z,52.14
2023-04-07T00:38:36.361Z,52.19
2023-04-07T00:41:03.478Z,52.46
2023-04-07T00:43:30.792Z,52.89
2023-04-07T00:45:57.950Z,52.11
2023-04-07T00:48:25.092Z,51.83
2023-04-07T00:50:52.254Z,52.85
2023-04-07T00:53:20.396Z,53.12
2023-04-07T00:55:47.665Z,53.40
2023-04-07T00:58:14.875Z,53.35
2023-04-07T01:00:50.840Z,53.48
2023-04-07T01:03:28.645Z,53.65
2023-04-07T01:06:01.172Z,54.06
2023-04-07T01:08:41.613Z,53.36
2023-04-07T01:11:17.753Z,54.66
2023-04-07T01:13:52.983Z,54.66
2023-04-07T01:16:48.753Z,55.04
2023-04-07T01:19:36.494Z,54.07
2023-04-07T01:22:11.824Z,54.77
2023-04-07T01:25:02.580Z,54.69
2023-04-07T01:27:43.943Z,55.31
2023-04-07T01:30:13.537Z,54.40
2023-04-07T01:32:44.126Z,55.09
2023-04-07T01:35:14.081Z,54.67
2023-04-07T01:37:41.773Z,56.45
2023-04-07T01:40:10.411Z,56.32
2023-04-07T01:42:39.344Z,55.30
2023-04-07T01:45:08.424Z,56.54
2023-04-07T01:47:39.529Z,56.83
2023-04-07T01:50:11.192Z,56.25
2023-04-07T01:52:40.209Z,55.76
2023-04-07T01:55:07.670Z,56.49
2023-04-07T01:57:39.935Z,57.19
2023-04-07T02:00:14.039Z,57.21
2023-04-07T02:02:53.159Z,56.78
2023-04-07T02:05:22.944Z,58.22
2023-04-07T02:07:55.864Z,58.02
2023-04-07T02:10:25.904Z,57.58
2023-04-07T02:12:57.389Z,57.73
2023-04-07T02:15:26.030Z,57.85
2023-04-07T02:17:56.628Z,58.49
2023-04-07T02:20:24.515Z,59.52
2023-04-07T02:22:51.825Z,59.52
2023-04-07T02:25:26.899Z,59.02
2023-04-07T02:27:56.510Z,58.25
2023-04-07T02:30:24.313Z,59.00
2023-04-07T02:32:52.599Z,58.58
2023-04-07T02:35:21.297Z,58.85
2023-04-07T02:37:48.693Z,59.08
2023-04-07T02:40:16.470Z,58.98
2023-04-07T02:42:44.161Z,58.91
2023-04-07T02:45:11.842Z,57.76
2023-04-07T02:47:39.845Z,59.26
2023-04-07T02:50:07.834Z,58.55
2023-04-07T02:52:36.381Z,59.27
2023-04-07T02:55:10.019Z,59.63
2023-04-07T02:57:37.194Z,59.78
2023-04-07T03:00:09.609Z,59.44
2023-04-07T03:02:54.567Z,59.04
2023-04-07T03:05:21.932Z,58.93
2023-04-07T03:07:49.246Z,59.19
2023-04-07T03:10:16.630Z,57.94
2023-04-07T03:12:44.289Z,57.13
2023-04-07T03:15:11.582Z,57.67
2023-04-07T03:17:41.784Z,57.79
2023-04-07T03:20:09.237Z,57.49
2023-04-07T03:22:38.060Z,56.51
2023-04-07T03:25:09.186Z,55.28
2023-04-07T03:27:36.331Z,57.42
2023-04-07T03:30:05.144Z,58.29
2023-04-07T03:32:32.413Z,56.32
2023-04-07T03:34:59.555Z,55.09
2023-04-07T03:37:26.626Z,56.05
2023-04-07T03:39:55.431Z,53.54
2023-04-07T03:42:34.042Z,54.60
2023-04-07T03:45:04.554Z,54.44
2023-04-07T03:47:34.005Z,52.07
2023-04-07T03:50:03.650Z,49.76
2023-04-07T03:52:35.267Z,49.99
2023-04-07T03:55:11.891Z,52.41
2023-04-07T03:57:41.045Z,54.03
2023-04-07T04:00:09.252Z,57.19
2023-04-07T04:02:43.888Z,54.82
2023-04-07T04:05:15.867Z,51.99
2023-04-07T04:07:44.767Z,52.85
2023-04-07T04:10:12.176Z,50.78
2023-04-07T04:12:43.733Z,47.98
2023-04-07T04:15:13.815Z,48.60
2023-04-07T04:17:41.732Z,47.80
2023-04-07T04:20:10.459Z,46.98
2023-04-07T04:22:43.443Z,46.45
2023-04-07T04:25:11.843Z,47.25
2023-04-07T04:27:41.192Z,47.71
2023-04-07T04:30:16.768Z,46.06
2023-04-07T04:32:51.678Z,47.81
2023-04-07T04:35:24.824Z,46.91
2023-04-07T04:38:10.691Z,45.88
2023-04-07T04:40:42.561Z,47.25
2023-04-07T04:43:09.915Z,48.97
2023-04-07T04:45:39.793Z,51.00
2023-04-07T04:48:09.685Z,52.58
2023-04-07T04:50:36.885Z,51.64
2023-04-07T04:53:09.055Z,52.48
2023-04-07T04:55:47.184Z,52.74
2023-04-07T04:58:19.446Z,53.44
2023-04-07T05:00:49.931Z,54.67
2023-04-07T05:03:17.850Z,53.31
2023-04-07T05:05:49.780Z,52.25
2023-04-07T05:08:20.832Z,50.69
2023-04-07T05:10:48.080Z,51.07
2023-04-07T05:13:19.642Z,51.29
2023-04-07T05:15:46.848Z,50.50
2023-04-07T05:18:14.702Z,51.19
2023-04-07T05:20:41.980Z,52.71
2023-04-07T05:23:10.164Z,52.00
2023-04-07T05:25:37.835Z,52.81
2023-04-07T05:28:06.897Z,51.05
2023-04-07T05:30:34.665Z,52.26
2023-04-07T05:33:02.141Z,49.61
2023-04-07T05:35:58.420Z,50.72
2023-04-07T05:38:25.979Z,49.86
2023-04-07T05:40:58.422Z,49.22
2023-04-07T05:43:33.283Z,50.09
2023-04-07T05:46:00.730Z,48.30
2023-04-07T05:48:28.329Z,49.52
2023-04-07T05:50:56.163Z,48.93
2023-04-07T05:53:23.295Z,48.11
2023-04-07T05:55:50.446Z,47.62
2023-04-07T05:58:40.242Z,47.38
2023-04-07T06:01:08.700Z,48.19
2023-04-07T06:03:35.926Z,48.24
2023-04-07T06:06:29.320Z,48.66
2023-04-07T06:08:56.432Z,46.75
2023-04-07T06:11:27.229Z,46.78
2023-04-07T06:13:54.465Z,47.61
2023-04-07T06:16:21.603Z,45.93
2023-04-07T06:18:48.803Z,45.73
2023-04-07T06:21:15.921Z,45.50
2023-04-07T06:23:43.015Z,47.34
2023-04-07T06:26:13.588Z,46.26
2023-04-07T06:28:40.834Z,46.29
2023-04-07T06:31:09.122Z,45.96
2023-04-07T06:33:37.331Z,45.36
2023-04-07T06:36:04.747Z,45.46
2023-04-07T06:38:31.932Z,46.21
2023-04-07T06:40:59.425Z,45.42
2023-04-07T06:43:26.481Z,44.42
2023-04-07T06:46:01.893Z,44.00
2023-04-07T06:48:29.119Z,43.63
2023-04-07T06:50:56.298Z,43.83
2023-04-07T06:53:23.383Z,44.74
2023-04-07T06:55:50.541Z,44.54
2023-04-07T06:58:17.641Z,43.24
2023-04-07T07:00:44.722Z,42.32
2023-04-07T07:03:11.974Z,43.60
2023-04-07T07:05:39.127Z,43.75
2023-04-07T07:08:06.181Z,44.22
2023-04-07T07:10:33.295Z,42.75
2023-04-07T07:13:00.396Z,42.23
2023-04-07T07:15:27.560Z,42.34
2023-04-07T07:17:54.703Z,42.21
2023-04-07T07:20:23.637Z,41.42
2023-04-07T07:22:51.109Z,41.31
2023-04-07T07:25:18.293Z,41.01
2023-04-07T07:27:45.982Z,41.62
2023-04-07T07:30:13.326Z,41.41
2023-04-07T07:32:40.690Z,40.81
2023-04-07T07:35:08.049Z,41.41
2023-04-07T07:37:35.886Z,41.23
2023-04-07T07:40:03.127Z,40.26
2023-04-07T07:42:31.642Z,40.42
2023-04-07T07:44:59.194Z,39.75
2023-04-07T07:47:26.809Z,39.83
2023-04-07T07:49:54.087Z,39.73
2023-04-07T07:52:21.316Z,40.22
2023-04-07T07:54:49.266Z,40.94
2023-04-07T07:57:16.472Z,39.60
2023-04-07T07:59:43.805Z,38.99
2023-04-07T08:02:11.134Z,39.23
2023-04-07T08:04:38.426Z,38.89
2023-04-07T08:07:05.598Z,39.11
2023-04-07T08:09:32.738Z,39.32
2023-04-07T08:11:59.861Z,38.05
2023-04-07T08:14:27.073Z,37.80
2023-04-07T08:16:54.179Z,37.69
2023-04-07T08:19:21.369Z,37.85
2023-04-07T08:21:48.425Z,37.36
2023-04-07T08:24:15.719Z,36.62
2023-04-07T08:27:01.649Z,36.45
2023-04-07T08:29:30.026Z,36.30
2023-04-07T08:31:58.346Z,36.28
2023-04-07T08:34:25.550Z,34.66
2023-04-07T08:36:52.639Z,34.87
2023-04-07T08:39:19.747Z,35.14
2023-04-07T08:41:48.874Z,36.38
2023-04-07T08:44:17.121Z,35.83
2023-04-07T08:46:47.114Z,35.18
2023-04-07T08:49:18.111Z,35.34
2023-04-07T08:51:47.704Z,34.04
2023-04-07T08:54:16.780Z,34.61
2023-04-07T08:56:43.859Z,35.44
2023-04-07T08:59:13.817Z,34.96
2023-04-07T09:01:41.751Z,34.25
2023-04-07T09:04:10.606Z,33.96
2023-04-07T09:06:38.542Z,34.40
2023-04-07T09:09:06.423Z,33.93
2023-04-07T09:11:38.701Z,33.72
2023-04-07T09:14:05.854Z,34.66
2023-04-07T09:16:33.069Z,34.15
2023-04-07T09:19:00.450Z,34.36
2023-04-07T09:21:46.830Z,33.24
2023-04-07T09:24:28.430Z,35.48
2023-04-07T09:27:17.226Z,34.22
2023-04-07T09:29:47.522Z,33.91
2023-04-07T09:32:37.311Z,34.15
2023-04-07T09:35:04.594Z,33.50
2023-04-07T09:37:31.736Z,33.00
2023-04-07T09:39:59.126Z,33.29
2023-04-07T09:42:26.832Z,32.65
2023-04-07T09:44:54.038Z,33.62
2023-04-07T09:47:29.154Z,34.19
2023-04-07T09:49:57.151Z,32.90
2023-04-07T09:52:46.650Z,33.32
2023-04-07T09:55:14.735Z,33.07
2023-04-07T09:57:42.338Z,33.68
2023-04-07T10:00:10.559Z,32.65
2023-04-07T10:02:40.680Z,33.00
2023-04-07T10:05:08.536Z,31.95
2023-04-07T10:07:35.931Z,32.43
2023-04-07T10:10:08.216Z,32.49
2023-04-07T10:12:37.943Z,32.05
2023-04-07T10:15:06.144Z,32.69
2023-04-07T10:17:34.214Z,32.88
2023-04-07T10:20:02.446Z,32.40
2023-04-07T10:22:31.856Z,32.43
2023-04-07T10:25:05.741Z,32.63
2023-04-07T10:27:37.492Z,31.85
2023-04-07T10:30:12.199Z,32.04
2023-04-07T10:32:58.041Z,33.19
2023-04-07T10:35:26.087Z,31.92
2023-04-07T10:38:08.553Z,32.51
2023-04-07T10:40:36.983Z,32.37
2023-04-07T10:43:05.235Z,31.91
2023-04-07T10:45:57.972Z,32.37
2023-04-07T10:48:26.047Z,32.80
2023-04-07T10:51:05.508Z,31.47
2023-04-07T10:53:32.726Z,30.69
2023-04-07T10:56:00.168Z,30.91
2023-04-07T10:58:31.666Z,32.22
2023-04-07T11:01:01.772Z,31.01
2023-04-07T11:03:34.998Z,31.16
2023-04-07T11:06:13.114Z,30.94
2023-04-07T11:08:42.862Z,30.50
2023-04-07T11:11:12.678Z,30.51
2023-04-07T11:13:49.854Z,30.71
2023-04-07T11:16:34.587Z,30.37
2023-04-07T11:19:01.794Z,30.50
2023-04-07T11:21:29.011Z,31.30
2023-04-07T11:23:56.134Z,30.80
2023-04-07T11:26:23.789Z,31.11
2023-04-07T11:28:53.160Z,31.12
2023-04-07T11:31:25.687Z,30.59
2023-04-07T11:33:55.377Z,31.34
2023-04-07T11:36:34.971Z,31.20
2023-04-07T11:39:03.764Z,30.52
2023-04-07T11:41:33.672Z,30.22
2023-04-07T11:44:10.231Z,30.32
2023-04-07T11:46:38.391Z,30.44
2023-04-07T11:49:10.948Z,30.70
2023-04-07T11:51:38.273Z,30.44
2023-04-07T11:54:05.754Z,32.35
2023-04-07T11:56:46.261Z,31.96
2023-04-07T11:59:24.121Z,30.53
2023-04-07T12:01:55.262Z,30.25
2023-04-07T12:04:24.609Z,30.35
2023-04-07T12:06:51.808Z,30.95
2023-04-07T12:09:35.999Z,30.13
2023-04-07T12:12:08.383Z,32.41
2023-04-07T12:14:36.679Z,31.00
2023-04-07T12:17:04.381Z,31.17
2023-04-07T12:19:39.756Z,31.45
2023-04-07T12:22:07.562Z,32.43
2023-04-07T12:24:34.702Z,31.53
2023-04-07T12:27:02.611Z,31.29
2023-04-07T12:29:30.160Z,30.63
2023-04-07T12:31:57.672Z,31.20
2023-04-07T12:34:24.805Z,30.89
2023-04-07T12:36:51.919Z,30.52
2023-04-07T12:39:19.407Z,31.10
2023-04-07T12:41:47.885Z,30.41
2023-04-07T12:44:16.269Z,31.29
2023-04-07T12:46:43.401Z,31.05
2023-04-07T12:49:10.589Z,30.55
2023-04-07T12:51:40.091Z,30.71
2023-04-07T12:54:07.730Z,30.27
2023-04-07T12:56:34.835Z,30.75
2023-04-07T12:59:02.259Z,31.55
2023-04-07T13:01:29.418Z,30.73
2023-04-07T13:03:57.144Z,30.57
2023-04-07T13:06:24.650Z,31.14
2023-04-07T13:08:52.017Z,30.30
2023-04-07T13:11:19.225Z,30.68
2023-04-07T13:13:46.401Z,31.24
2023-04-07T13:16:13.670Z,30.93
2023-04-07T13:18:40.713Z,31.60
2023-04-07T13:21:33.815Z,30.57
2023-04-07T13:23:55.108Z,30.14
2023-04-07T13:26:25.002Z,30.67
2023-04-07T13:28:52.137Z,32.08
2023-04-07T13:31:19.426Z,30.94
2023-04-07T13:33:47.131Z,31.25
2023-04-07T13:36:14.347Z,31.19
2023-04-07T13:38:42.663Z,30.29
2023-04-07T13:41:09.813Z,31.50
2023-04-07T13:43:36.924Z,31.46
2023-04-07T13:46:06.250Z,31.96
2023-04-07T13:48:36.885Z,31.19
2023-04-07T13:51:05.076Z,31.28
2023-04-07T13:53:32.240Z,31.77
2023-04-07T13:55:59.347Z,31.80
2023-04-07T13:58:26.447Z,30.93
2023-04-07T14:00:53.534Z,32.16
2023-04-07T14:03:21.019Z,32.25
2023-04-07T14:05:48.823Z,31.54
2023-04-07T14:08:16.039Z,31.76
2023-04-07T14:10:43.480Z,31.96
2023-04-07T14:13:11.299Z,32.06
2023-04-07T14:15:38.433Z,32.41
2023-04-07T14:18:06.563Z,31.45
2023-04-07T14:20:33.931Z,31.54
2023-04-07T14:23:01.729Z,32.32
2023-04-07T14:25:28.946Z,31.86
2023-04-07T14:27:56.147Z,31.33
2023-04-07T14:30:23.338Z,31.96
2023-04-07T14:32:50.804Z,31.48
2023-04-07T14:35:17.919Z,31.86
2023-04-07T14:37:45.011Z,32.33
2023-04-07T14:40:12.506Z,32.45
2023-04-07T14:42:40.245Z,32.43
2023-04-07T14:45:08.364Z,32.29
2023-04-07T14:47:35.657Z,32.00
2023-04-07T14:50:02.831Z,33.16
2023-04-07T14:52:30.375Z,32.34
2023-04-07T14:54:59.649Z,32.78
2023-04-07T14:57:27.599Z,32.73
2023-04-07T14:59:54.746Z,33.54
2023-04-07T15:02:22.191Z,32.97
2023-04-07T15:04:49.431Z,33.19
2023-04-07T15:07:16.741Z,32.56
2023-04-07T15:09:43.819Z,32.21
2023-04-07T15:12:10.942Z,32.66
2023-04-07T15:14:38.051Z,32.56
2023-04-07T15:17:05.182Z,32.59
2023-04-07T15:19:32.338Z,32.29
2023-04-07T15:21:59.447Z,33.44
2023-04-07T15:24:26.568Z,33.01
2023-04-07T15:26:53.624Z,32.55
2023-04-07T15:29:20.819Z,33.47
2023-04-07T15:31:48.070Z,33.50
2023-04-07T15:34:15.435Z,33.33
2023-04-07T15:36:42.648Z,32.94
2023-04-07T15:39:09.735Z,33.72
2023-04-07T15:41:37.032Z,32.83
2023-04-07T15:44:04.514Z,33.22
2023-04-07T15:46:34.631Z,33.60
2023-04-07T15:49:01.922Z,34.11
2023-04-07T15:51:29.721Z,33.88
2023-04-07T15:53:56.823Z,34.14
2023-04-07T15:56:24.909Z,34.36
2023-04-07T15:58:52.507Z,34.43
2023-04-07T16:01:20.104Z,34.90
2023-04-07T16:03:47.910Z,34.66
2023-04-07T16:06:15.543Z,34.43
2023-04-07T16:08:42.801Z,35.25
2023-04-07T16:11:09.949Z,34.91
2023-04-07T16:13:37.362Z,35.55
2023-04-07T16:16:04.589Z,34.70
2023-04-07T16:18:31.745Z,35.01
2023-04-07T16:20:58.913Z,35.15
2023-04-07T16:23:26.056Z,35.07
2023-04-07T16:25:53.145Z,35.35
2023-04-07T16:28:20.300Z,35.42
2023-04-07T16:30:47.419Z,35.83
2023-04-07T16:33:14.519Z,35.80
2023-04-07T16:35:41.669Z,35.79
2023-04-07T16:38:08.853Z,36.37
2023-04-07T16:40:36.016Z,35.94
2023-04-07T16:43:03.206Z,36.17
2023-04-07T16:45:30.313Z,36.03
2023-04-07T16:47:57.488Z,36.74
2023-04-07T16:50:24.670Z,36.98
2023-04-07T16:52:51.895Z,36.88
2023-04-07T16:55:19.148Z,37.29
2023-04-07T16:57:46.419Z,37.30
2023-04-07T17:00:13.741Z,37.30
2023-04-07T17:02:41.177Z,37.32
2023-04-07T17:05:08.849Z,37.08
2023-04-07T17:07:36.361Z,36.77
2023-04-07T17:10:04.137Z,37.09
2023-04-07T17:12:31.231Z,37.00
2023-04-07T17:14:58.345Z,37.44
2023-04-07T17:17:25.825Z,36.87
2023-04-07T17:19:53.426Z,37.38
2023-04-07T17:22:21.411Z,37.36
2023-04-07T17:24:48.538Z,37.17
2023-04-07T17:27:15.686Z,37.28
2023-04-07T17:29:42.837Z,37.24
2023-04-07T17:32:10.255Z,37.95
2023-04-07T17:34:37.422Z,37.52
2023-04-07T17:37:04.596Z,37.69
2023-04-07T17:39:31.742Z,37.41
2023-04-07T17:41:58.944Z,37.66
2023-04-07T17:44:26.277Z,37.85
2023-04-07T17:46:54.176Z,37.96
2023-04-07T17:49:21.507Z,37.71
2023-04-07T17:51:48.586Z,37.61
2023-04-07T17:54:16.258Z,37.69
2023-04-07T17:56:43.527Z,38.11
2023-04-07T17:59:10.840Z,38.58
2023-04-07T18:01:38.092Z,38.48
2023-04-07T18:04:06.642Z,37.90
2023-04-07T18:06:35.051Z,38.91
2023-04-07T18:09:03.262Z,38.87
2023-04-07T18:11:30.348Z,38.50
2023-04-07T18:13:57.554Z,38.05
2023-04-07T18:16:24.855Z,38.76
2023-04-07T18:18:52.694Z,38.69
2023-04-07T18:21:19.897Z,38.49
2023-04-07T18:23:47.131Z,38.55
2023-04-07T18:26:14.887Z,38.85
2023-04-07T18:28:42.050Z,38.59
2023-04-07T18:31:09.960Z,38.70
2023-04-07T18:33:37.290Z,38.70
2023-04-07T18:36:07.474Z,38.90
2023-04-07T18:38:36.130Z,38.89
2023-04-07T18:41:03.894Z,38.96
2023-04-07T18:43:31.473Z,38.75
2023-04-07T18:45:58.950Z,38.79
2023-04-07T18:48:26.543Z,38.52
2023-04-07T18:50:55.063Z,39.21
2023-04-07T18:53:23.540Z,39.32
2023-04-07T18:55:51.131Z,39.14
2023-04-07T18:58:19.432Z,38.80
2023-04-07T19:00:47.784Z,39.23
2023-04-07T19:03:15.015Z,39.50
2023-04-07T19:05:42.664Z,39.31
2023-04-07T19:08:10.023Z,39.59
2023-04-07T19:10:37.252Z,38.99
2023-04-07T19:13:04.811Z,39.44
2023-04-07T19:15:46.195Z,39.16
2023-04-07T19:18:13.707Z,40.10
2023-04-07T19:20:40.953Z,39.27
2023-04-07T19:23:08.097Z,39.87
2023-04-07T19:25:35.407Z,38.93
2023-04-07T19:28:03.383Z,39.31
2023-04-07T19:30:30.550Z,39.77
2023-04-07T19:32:57.940Z,39.64
2023-04-07T19:35:25.674Z,40.12
2023-04-07T19:37:53.790Z,39.46
2023-04-07T19:40:20.909Z,39.50
2023-04-07T19:42:48.064Z,39.69
2023-04-07T19:45:15.239Z,39.77
2023-04-07T19:47:43.688Z,39.82
2023-04-07T19:50:17.727Z,39.91
2023-04-07T19:52:45.613Z,39.28
2023-04-07T19:55:14.332Z,40.14
2023-04-07T19:57:41.634Z,39.61
2023-04-07T20:00:10.451Z,39.68
2023-04-07T20:02:49.909Z,40.15
2023-04-07T20:05:18.359Z,40.30
2023-04-07T20:07:46.346Z,39.50
2023-04-07T20:10:13.483Z,40.08
2023-04-07T20:12:40.550Z,39.81
2023-04-07T20:15:08.271Z,39.82
2023-04-07T20:17:37.040Z,39.88
2023-04-07T20:20:05.695Z,39.91
2023-04-07T20:22:36.569Z,40.16
2023-04-07T20:25:06.485Z,40.49
2023-04-07T20:27:33.975Z,40.22
2023-04-07T20:30:02.122Z,39.90
2023-04-07T20:32:30.688Z,39.70
2023-04-07T20:34:57.851Z,40.44
2023-04-07T20:37:26.407Z,40.00
2023-04-07T20:39:55.694Z,40.33
2023-04-07T20:42:22.938Z,40.55
2023-04-07T20:44:50.028Z,40.38
2023-04-07T20:47:17.865Z,39.87
2023-04-07T20:49:45.152Z,39.79
2023-04-07T20:52:12.570Z,39.26
2023-04-07T20:54:40.429Z,39.76
2023-04-07T20:57:07.479Z,39.64
2023-04-07T20:59:34.540Z,38.57
2023-04-07T21:02:01.749Z,39.95
2023-04-07T21:04:29.213Z,38.85
2023-04-07T21:06:56.434Z,39.29
2023-04-07T21:09:23.540Z,39.42
2023-04-07T21:11:50.774Z,38.93
2023-04-07T21:14:19.264Z,38.64
2023-04-07T21:16:46.334Z,38.76
2023-04-07T21:19:13.431Z,39.11
2023-04-07T21:21:41.635Z,38.19
2023-04-07T21:24:08.806Z,38.90
2023-04-07T21:26:36.206Z,38.00
2023-04-07T21:29:03.356Z,37.74
2023-04-07T21:31:30.436Z,38.36
2023-04-07T21:33:57.664Z,37.82
2023-04-07T21:36:24.766Z,37.85
2023-04-07T21:38:52.448Z,38.34
2023-04-07T21:41:19.582Z,38.89
2023-04-07T21:43:46.922Z,38.52
2023-04-07T21:46:14.432Z,38.83
2023-04-07T21:48:42.281Z,39.52
2023-04-07T21:51:09.512Z,39.18
2023-04-07T21:53:36.810Z,38.89
2023-04-07T21:56:04.601Z,39.41
2023-04-07T21:58:31.710Z,39.60
2023-04-07T22:00:58.839Z,39.38
2023-04-07T22:03:30.087Z,39.85
2023-04-07T22:06:01.231Z,39.21
2023-04-07T22:08:31.351Z,40.06
2023-04-07T22:10:58.846Z,39.11
2023-04-07T22:13:26.069Z,39.22
2023-04-07T22:15:53.342Z,40.01
2023-04-07T22:18:22.175Z,39.61
2023-04-07T22:20:49.376Z,39.72
2023-04-07T22:23:16.473Z,39.64
2023-04-07T22:25:43.622Z,40.50
2023-04-07T22:28:11.065Z,40.22
2023-04-07T22:30:38.477Z,39.81
2023-04-07T22:33:07.105Z,40.14
2023-04-07T22:35:34.622Z,40.49
2023-04-07T22:38:01.883Z,40.71
2023-04-07T22:40:29.111Z,40.70
2023-04-07T22:42:56.222Z,40.62
2023-04-07T22:45:23.318Z,40.86
2023-04-07T22:47:50.556Z,40.31
2023-04-07T22:50:17.628Z,40.06
2023-04-07T22:52:44.759Z,40.92
2023-04-07T22:55:11.800Z,40.82
2023-04-07T22:57:39.885Z,40.63
2023-04-07T23:00:09.876Z,41.08
2023-04-07T23:02:37.879Z,40.50
2023-04-07T23:05:10.492Z,40.84
2023-04-07T23:07:37.947Z,41.56
2023-04-07T23:10:05.829Z,41.04
2023-04-07T23:12:32.989Z,41.29
2023-04-07T23:15:00.159Z,40.76
2023-04-07T23:17:27.576Z,41.51
2023-04-07T23:19:54.636Z,41.78
2023-04-07T23:22:22.143Z,41.31
2023-04-07T23:24:49.350Z,41.29
2023-04-07T23:27:16.650Z,42.09
2023-04-07T23:29:43.787Z,41.83
2023-04-07T23:32:11.496Z,41.60
2023-04-07T23:34:38.636Z,41.71
2023-04-07T23:37:05.838Z,42.12
2023-04-07T23:39:34.224Z,42.39
2023-04-07T23:42:02.233Z,42.23
2023-04-07T23:44:29.422Z,42.32
2023-04-07T23:46:56.546Z,42.68
2023-04-07T23:49:23.615Z,42.91
2023-04-07T23:51:51.454Z,42.78
2023-04-07T23:54:18.821Z,43.31
2023-04-07T23:56:46.056Z,42.97
2023-04-07T23:59:13.355Z,42.76
